sensor_id;sensor_type;location;lat;lon;timestamp;P1;durP1;ratioP1;P2;durP2;ratioP2
35757;SDS011;21879;50.110;18.900;2023-02-08T00:04:34;71.00;;;40.40;;
35757;SDS011;21879;50.110;18.900;2023-02-08T00:15:02;79.40;;;45.20;;
35757;SDS011;21879;50.110;18.900;2023-02-08T00:25:30;60.50;;;36.80;;
35757;SDS011;21879;50.110;18.900;2023-02-08T00:35:59;59.00;;;35.20;;
35757;SDS011;21879;50.110;18.900;2023-02-08T00:46:29;58.00;;;32.50;;
35757;SDS011;21879;50.110;18.900;2023-02-08T00:56:57;49.30;;;30.70;;
35757;SDS011;21879;50.110;18.900;2023-02-08T01:07:25;59.10;;;35.30;;
35757;SDS011;21879;50.110;18.900;2023-02-08T01:17:53;68.40;;;40.10;;
35757;SDS011;21879;50.110;18.900;2023-02-08T01:28:21;51.70;;;33.70;;
35757;SDS011;21879;50.110;18.900;2023-02-08T01:38:49;50.60;;;30.80;;
35757;SDS011;21879;50.110;18.900;2023-02-08T01:49:18;51.50;;;31.80;;
35757;SDS011;21879;50.110;18.900;2023-02-08T01:59:50;62.30;;;39.90;;
35757;SDS011;21879;50.110;18.900;2023-02-08T02:10:22;69.50;;;39.10;;
35757;SDS011;21879;50.110;18.900;2023-02-08T02:31:53;60.70;;;32.10;;
35757;SDS011;21879;50.110;18.900;2023-02-08T02:42:32;54.90;;;33.10;;
35757;SDS011;21879;50.110;18.900;2023-02-08T02:53:26;56.70;;;35.50;;
35757;SDS011;21879;50.110;18.900;2023-02-08T03:03:58;63.20;;;37.30;;
35757;SDS011;21879;50.110;18.900;2023-02-08T03:14:37;59.90;;;35.60;;
35757;SDS011;21879;50.110;18.900;2023-02-08T03:25:16;50.60;;;30.20;;
35757;SDS011;21879;50.110;18.900;2023-02-08T03:35:47;64.90;;;32.60;;
35757;SDS011;21879;50.110;18.900;2023-02-08T03:46:21;55.90;;;33.30;;
35757;SDS011;21879;50.110;18.900;2023-02-08T03:56:53;58.60;;;35.00;;
35757;SDS011;21879;50.110;18.900;2023-02-08T04:07:25;56.30;;;33.70;;
35757;SDS011;21879;50.110;18.900;2023-02-08T04:17:53;47.30;;;29.20;;
35757;SDS011;21879;50.110;18.900;2023-02-08T04:28:21;53.70;;;31.90;;
35757;SDS011;21879;50.110;18.900;2023-02-08T04:38:48;44.40;;;28.90;;
35757;SDS011;21879;50.110;18.900;2023-02-08T04:49:16;48.50;;;29.30;;
35757;SDS011;21879;50.110;18.900;2023-02-08T04:59:43;46.30;;;27.90;;
35757;SDS011;21879;50.110;18.900;2023-02-08T05:10:11;38.60;;;22.80;;
35757;SDS011;21879;50.110;18.900;2023-02-08T05:20:39;48.00;;;26.70;;
35757;SDS011;21879;50.110;18.900;2023-02-08T05:31:11;40.00;;;24.30;;
35757;SDS011;21879;50.110;18.900;2023-02-08T05:41:42;40.00;;;23.40;;
35757;SDS011;21879;50.110;18.900;2023-02-08T05:52:09;37.60;;;23.00;;
35757;SDS011;21879;50.110;18.900;2023-02-08T06:02:37;40.20;;;23.00;;
35757;SDS011;21879;50.110;18.900;2023-02-08T06:13:05;43.60;;;23.70;;
35757;SDS011;21879;50.110;18.900;2023-02-08T06:23:32;35.80;;;23.30;;
35757;SDS011;21879;50.110;18.900;2023-02-08T06:34:00;36.60;;;20.60;;
35757;SDS011;21879;50.110;18.900;2023-02-08T06:44:28;34.20;;;20.20;;
35757;SDS011;21879;50.110;18.900;2023-02-08T06:54:55;42.00;;;27.90;;
35757;SDS011;21879;50.110;18.900;2023-02-08T07:05:23;44.80;;;22.80;;
35757;SDS011;21879;50.110;18.900;2023-02-08T07:15:50;46.40;;;26.20;;
35757;SDS011;21879;50.110;18.900;2023-02-08T07:26:18;38.50;;;23.90;;
35757;SDS011;21879;50.110;18.900;2023-02-08T07:36:46;42.90;;;25.50;;
35757;SDS011;21879;50.110;18.900;2023-02-08T07:47:14;42.30;;;24.10;;
35757;SDS011;21879;50.110;18.900;2023-02-08T07:57:42;38.70;;;22.80;;
35757;SDS011;21879;50.110;18.900;2023-02-08T08:08:11;31.80;;;18.90;;
35757;SDS011;21879;50.110;18.900;2023-02-08T08:18:40;29.40;;;17.90;;
35757;SDS011;21879;50.110;18.900;2023-02-08T08:29:09;32.20;;;17.80;;
35757;SDS011;21879;50.110;18.900;2023-02-08T08:39:38;32.90;;;17.90;;
35757;SDS011;21879;50.110;18.900;2023-02-08T08:50:06;36.00;;;19.80;;
35757;SDS011;21879;50.110;18.900;2023-02-08T09:00:34;35.00;;;20.50;;
35757;SDS011;21879;50.110;18.900;2023-02-08T09:11:06;34.70;;;18.50;;
35757;SDS011;21879;50.110;18.900;2023-02-08T09:21:35;32.80;;;18.60;;
35757;SDS011;21879;50.110;18.900;2023-02-08T09:32:04;32.60;;;21.00;;
35757;SDS011;21879;50.110;18.900;2023-02-08T09:42:39;25.50;;;15.80;;
35757;SDS011;21879;50.110;18.900;2023-02-08T09:53:13;22.80;;;13.50;;
35757;SDS011;21879;50.110;18.900;2023-02-08T10:03:43;28.10;;;15.60;;
35757;SDS011;21879;50.110;18.900;2023-02-08T10:25:21;23.40;;;11.30;;
35757;SDS011;21879;50.110;18.900;2023-02-08T10:36:12;19.70;;;12.00;;
35757;SDS011;21879;50.110;18.900;2023-02-08T10:46:45;25.70;;;14.50;;
35757;SDS011;21879;50.110;18.900;2023-02-08T10:57:17;22.80;;;13.90;;
35757;SDS011;21879;50.110;18.900;2023-02-08T11:07:55;21.10;;;12.60;;
35757;SDS011;21879;50.110;18.900;2023-02-08T11:18:32;19.50;;;11.60;;
35757;SDS011;21879;50.110;18.900;2023-02-08T11:29:03;18.60;;;9.10;;
35757;SDS011;21879;50.110;18.900;2023-02-08T11:39:39;20.40;;;10.40;;
35757;SDS011;21879;50.110;18.900;2023-02-08T11:50:20;15.80;;;9.40;;
35757;SDS011;21879;50.110;18.900;2023-02-08T12:11:25;21.70;;;12.40;;
35757;SDS011;21879;50.110;18.900;2023-02-08T12:22:33;23.40;;;12.90;;
35757;SDS011;21879;50.110;18.900;2023-02-08T12:33:10;19.30;;;10.90;;
35757;SDS011;21879;50.110;18.900;2023-02-08T12:43:51;20.10;;;9.50;;
35757;SDS011;21879;50.110;18.900;2023-02-08T12:54:30;17.90;;;9.10;;
35757;SDS011;21879;50.110;18.900;2023-02-08T13:05:04;17.10;;;11.40;;
35757;SDS011;21879;50.110;18.900;2023-02-08T13:15:39;14.60;;;8.10;;
35757;SDS011;21879;50.110;18.900;2023-02-08T13:26:12;17.60;;;9.60;;
35757;SDS011;21879;50.110;18.900;2023-02-08T13:36:48;18.50;;;10.00;;
35757;SDS011;21879;50.110;18.900;2023-02-08T13:47:22;20.30;;;11.00;;
35757;SDS011;21879;50.110;18.900;2023-02-08T13:57:53;16.00;;;9.00;;
35757;SDS011;21879;50.110;18.900;2023-02-08T14:08:22;19.60;;;10.20;;
35757;SDS011;21879;50.110;18.900;2023-02-08T14:18:58;17.00;;;8.80;;
35757;SDS011;21879;50.110;18.900;2023-02-08T14:29:28;15.30;;;8.50;;
35757;SDS011;21879;50.110;18.900;2023-02-08T14:51:16;22.10;;;11.50;;
35757;SDS011;21879;50.110;18.900;2023-02-08T15:01:51;22.80;;;12.20;;
35757;SDS011;21879;50.110;18.900;2023-02-08T15:12:23;27.90;;;16.40;;
35757;SDS011;21879;50.110;18.900;2023-02-08T15:22:58;21.70;;;11.30;;
35757;SDS011;21879;50.110;18.900;2023-02-08T15:33:28;22.60;;;12.50;;
35757;SDS011;21879;50.110;18.900;2023-02-08T15:54:45;27.80;;;14.10;;
35757;SDS011;21879;50.110;18.900;2023-02-08T16:15:46;23.00;;;13.60;;
35757;SDS011;21879;50.110;18.900;2023-02-08T16:26:32;24.70;;;12.60;;
35757;SDS011;21879;50.110;18.900;2023-02-08T16:37:05;22.20;;;12.20;;
35757;SDS011;21879;50.110;18.900;2023-02-08T16:47:47;24.50;;;11.90;;
35757;SDS011;21879;50.110;18.900;2023-02-08T16:58:17;26.10;;;13.20;;
35757;SDS011;21879;50.110;18.900;2023-02-08T17:08:46;28.70;;;15.90;;
35757;SDS011;21879;50.110;18.900;2023-02-08T17:19:14;22.30;;;12.10;;
35757;SDS011;21879;50.110;18.900;2023-02-08T17:29:43;20.00;;;13.20;;
35757;SDS011;21879;50.110;18.900;2023-02-08T17:40:12;22.90;;;13.70;;
35757;SDS011;21879;50.110;18.900;2023-02-08T18:13:26;30.10;;;17.30;;
35757;SDS011;21879;50.110;18.900;2023-02-08T18:23:51;21.60;;;12.40;;
35757;SDS011;21879;50.110;18.900;2023-02-08T18:34:17;22.00;;;13.50;;
35757;SDS011;21879;50.110;18.900;2023-02-08T18:44:42;23.30;;;13.70;;
35757;SDS011;21879;50.110;18.900;2023-02-08T18:55:07;22.70;;;14.50;;
35757;SDS011;21879;50.110;18.900;2023-02-08T19:05:35;22.10;;;14.50;;
35757;SDS011;21879;50.110;18.900;2023-02-08T19:16:00;23.90;;;14.10;;
35757;SDS011;21879;50.110;18.900;2023-02-08T19:26:29;26.30;;;17.30;;
35757;SDS011;21879;50.110;18.900;2023-02-08T19:36:55;46.70;;;28.20;;
35757;SDS011;21879;50.110;18.900;2023-02-08T19:47:20;49.20;;;29.50;;
35757;SDS011;21879;50.110;18.900;2023-02-08T19:58:05;46.80;;;29.50;;
35757;SDS011;21879;50.110;18.900;2023-02-08T20:08:32;39.50;;;22.80;;
35757;SDS011;21879;50.110;18.900;2023-02-08T20:18:56;37.10;;;22.90;;
35757;SDS011;21879;50.110;18.900;2023-02-08T20:29:21;49.30;;;27.80;;
35757;SDS011;21879;50.110;18.900;2023-02-08T20:39:45;40.40;;;27.30;;
35757;SDS011;21879;50.110;18.900;2023-02-08T20:50:09;49.20;;;28.90;;
35757;SDS011;21879;50.110;18.900;2023-02-08T21:00:42;70.80;;;46.60;;
35757;SDS011;21879;50.110;18.900;2023-02-08T21:11:08;69.70;;;46.30;;
35757;SDS011;21879;50.110;18.900;2023-02-08T21:21:33;125.50;;;64.10;;
35757;SDS011;21879;50.110;18.900;2023-02-08T21:31:58;70.70;;;39.90;;
35757;SDS011;21879;50.110;18.900;2023-02-08T21:42:23;61.40;;;36.40;;
35757;SDS011;21879;50.110;18.900;2023-02-08T21:52:47;58.30;;;32.00;;
35757;SDS011;21879;50.110;18.900;2023-02-08T22:03:30;68.90;;;37.30;;
35757;SDS011;21879;50.110;18.900;2023-02-08T22:13:55;64.70;;;40.20;;
35757;SDS011;21879;50.110;18.900;2023-02-08T22:24:20;61.80;;;40.50;;
35757;SDS011;21879;50.110;18.900;2023-02-08T22:34:44;57.50;;;34.80;;
35757;SDS011;21879;50.110;18.900;2023-02-08T22:45:09;47.30;;;31.30;;
35757;SDS011;21879;50.110;18.900;2023-02-08T22:55:34;51.10;;;32.10;;
35757;SDS011;21879;50.110;18.900;2023-02-08T23:05:58;51.00;;;31.70;;
35757;SDS011;21879;50.110;18.900;2023-02-08T23:16:22;47.80;;;34.00;;
35757;SDS011;21879;50.110;18.900;2023-02-08T23:26:46;55.60;;;33.70;;
35757;SDS011;21879;50.110;18.900;2023-02-08T23:37:10;54.40;;;34.00;;
35757;SDS011;21879;50.110;18.900;2023-02-08T23:47:36;42.70;;;27.00;;
35757;SDS011;21879;50.110;18.900;2023-02-08T23:58:00;33.60;;;23.50;;
